sensor_id;sensor_type;location;lat;lon;timestamp;pressure;altitude;pressure_sealevel;temperature;humidity
4528;BME280;62320;51.520;6.818;2022-12-20T00:02:42;101078.47;;;10.10;97.53
4528;BME280;62320;51.520;6.818;2022-12-20T00:12:43;101075.00;;;10.06;97.05
4528;BME280;62320;51.520;6.818;2022-12-20T00:22:45;101048.38;;;10.14;96.31
4528;BME280;62320;51.520;6.818;2022-12-20T00:32:46;101035.50;;;10.15;96.08
4528;BME280;62320;51.520;6.818;2022-12-20T00:42:47;101026.06;;;10.23;95.17
4528;BME280;62320;51.520;6.818;2022-12-20T00:52:49;101028.59;;;10.19;95.41
4528;BME280;62320;51.520;6.818;2022-12-20T01:02:50;101011.41;;;10.24;95.81
4528;BME280;62320;51.520;6.818;2022-12-20T01:12:53;101020.91;;;10.26;94.88
4528;BME280;62320;51.520;6.818;2022-12-20T01:22:54;101017.47;;;10.29;95.02
4528;BME280;62320;51.520;6.818;2022-12-20T01:32:56;101013.13;;;10.22;95.07
4528;BME280;62320;51.520;6.818;2022-12-20T01:42:57;100996.81;;;10.33;94.47
4528;BME280;62320;51.520;6.818;2022-12-20T01:52:59;101011.47;;;10.31;95.35
4528;BME280;62320;51.520;6.818;2022-12-20T02:03:06;100993.38;;;10.34;95.08
4528;BME280;62320;51.520;6.818;2022-12-20T02:13:18;100987.38;;;10.40;94.71
4528;BME280;62320;51.520;6.818;2022-12-20T02:33:42;100989.16;;;10.51;94.66
4528;BME280;62320;51.520;6.818;2022-12-20T02:43:50;100972.78;;;10.49;95.94
4528;BME280;62320;51.520;6.818;2022-12-20T02:54:11;100974.47;;;10.46;95.99
4528;BME280;62320;51.520;6.818;2022-12-20T03:04:14;100987.38;;;10.46;97.50
4528;BME280;62320;51.520;6.818;2022-12-20T03:14:17;100995.97;;;10.39;100.00
4528;BME280;62320;51.520;6.818;2022-12-20T03:24:18;100988.19;;;10.28;100.00
4528;BME280;62320;51.520;6.818;2022-12-20T03:34:20;100970.91;;;10.23;100.00
4528;BME280;62320;51.520;6.818;2022-12-20T03:44:21;100948.50;;;10.19;100.00
4528;BME280;62320;51.520;6.818;2022-12-20T03:54:23;100941.53;;;10.10;100.00
4528;BME280;62320;51.520;6.818;2022-12-20T04:04:24;100945.00;;;10.11;100.00
4528;BME280;62320;51.520;6.818;2022-12-20T04:14:25;100963.06;;;10.07;100.00
4528;BME280;62320;51.520;6.818;2022-12-20T04:24:27;100939.78;;;9.97;100.00
4528;BME280;62320;51.520;6.818;2022-12-20T04:34:29;100939.75;;;9.98;100.00
4528;BME280;62320;51.520;6.818;2022-12-20T04:44:30;100957.84;;;9.98;100.00
4528;BME280;62320;51.520;6.818;2022-12-20T04:54:32;100956.97;;;9.99;100.00
4528;BME280;62320;51.520;6.818;2022-12-20T05:04:34;100942.34;;;10.00;100.00
4528;BME280;62320;51.520;6.818;2022-12-20T05:14:38;100935.47;;;9.99;100.00
4528;BME280;62320;51.520;6.818;2022-12-20T05:24:39;100901.84;;;9.97;100.00
4528;BME280;62320;51.520;6.818;2022-12-20T05:34:59;100910.47;;;9.98;100.00
4528;BME280;62320;51.520;6.818;2022-12-20T05:45:01;100900.13;;;9.99;100.00
4528;BME280;62320;51.520;6.818;2022-12-20T05:55:03;100892.41;;;10.02;100.00
4528;BME280;62320;51.520;6.818;2022-12-20T06:05:05;100873.44;;;9.96;100.00
4528;BME280;62320;51.520;6.818;2022-12-20T06:15:06;100872.63;;;10.04;100.00
4528;BME280;62320;51.520;6.818;2022-12-20T06:25:09;100866.59;;;10.05;100.00
4528;BME280;62320;51.520;6.818;2022-12-20T06:35:13;100874.44;;;10.15;100.00
4528;BME280;62320;51.520;6.818;2022-12-20T06:45:15;100859.78;;;10.15;100.00
4528;BME280;62320;51.520;6.818;2022-12-20T06:55:16;100835.66;;;10.21;100.00
4528;BME280;62320;51.520;6.818;2022-12-20T07:05:18;100829.63;;;10.20;100.00
4528;BME280;62320;51.520;6.818;2022-12-20T07:15:19;100824.50;;;10.26;100.00
4528;BME280;62320;51.520;6.818;2022-12-20T07:25:22;100812.44;;;10.33;100.00
4528;BME280;62320;51.520;6.818;2022-12-20T07:35:24;100813.31;;;10.33;100.00
4528;BME280;62320;51.520;6.818;2022-12-20T07:45:26;100808.97;;;10.34;100.00
4528;BME280;62320;51.520;6.818;2022-12-20T07:55:29;100812.47;;;10.36;100.00
4528;BME280;62320;51.520;6.818;2022-12-20T08:05:32;100831.41;;;10.41;100.00
4528;BME280;62320;51.520;6.818;2022-12-20T08:15:35;100826.25;;;10.47;99.71
4528;BME280;62320;51.520;6.818;2022-12-20T08:25:37;100796.09;;;10.52;99.70
4528;BME280;62320;51.520;6.818;2022-12-20T08:35:42;100803.84;;;10.56;98.98
4528;BME280;62320;51.520;6.818;2022-12-20T08:45:43;100815.09;;;10.67;98.75
4528;BME280;62320;51.520;6.818;2022-12-20T08:55:45;100804.75;;;10.72;98.58
4528;BME280;62320;51.520;6.818;2022-12-20T09:05:46;100806.44;;;10.76;98.53
4528;BME280;62320;51.520;6.818;2022-12-20T09:15:48;100809.00;;;10.88;97.67
4528;BME280;62320;51.520;6.818;2022-12-20T09:25:49;100813.34;;;10.94;97.61
4528;BME280;62320;51.520;6.818;2022-12-20T09:35:54;100824.53;;;11.00;97.69
4528;BME280;62320;51.520;6.818;2022-12-20T09:45:57;100815.91;;;11.12;96.87
4528;BME280;62320;51.520;6.818;2022-12-20T09:56:05;100809.84;;;11.11;98.39
4528;BME280;62320;51.520;6.818;2022-12-20T10:06:36;100805.53;;;11.09;99.35
4528;BME280;62320;51.520;6.818;2022-12-20T10:16:51;100802.97;;;11.07;100.00
4528;BME280;62320;51.520;6.818;2022-12-20T10:27:06;100777.94;;;11.14;99.81
4528;BME280;62320;51.520;6.818;2022-12-20T10:37:14;100765.84;;;11.16;99.32
4528;BME280;62320;51.520;6.818;2022-12-20T10:47:36;100752.91;;;11.20;100.00
4528;BME280;62320;51.520;6.818;2022-12-20T10:57:40;100722.69;;;11.27;99.40
4528;BME280;62320;51.520;6.818;2022-12-20T11:18:46;100717.47;;;11.42;98.17
4528;BME280;62320;51.520;6.818;2022-12-20T11:39:25;100715.72;;;11.44;97.74
4528;BME280;62320;51.520;6.818;2022-12-20T11:59:55;100677.75;;;11.44;98.19
4528;BME280;62320;51.520;6.818;2022-12-20T12:10:02;100660.41;;;11.60;97.19
4528;BME280;62320;51.520;6.818;2022-12-20T12:20:28;100676.75;;;11.73;96.11
4528;BME280;62320;51.520;6.818;2022-12-20T12:30:40;100668.09;;;11.78;95.51
4528;BME280;62320;51.520;6.818;2022-12-20T12:41:21;100660.31;;;11.78;95.63
4528;BME280;62320;51.520;6.818;2022-12-20T12:51:31;100659.41;;;11.85;95.10
4528;BME280;62320;51.520;6.818;2022-12-20T13:11:54;100673.34;;;11.60;100.00
4528;BME280;62320;51.520;6.818;2022-12-20T13:42:45;100664.84;;;11.35;100.00
4528;BME280;62320;51.520;6.818;2022-12-20T13:52:47;100679.53;;;11.30;100.00
4528;BME280;62320;51.520;6.818;2022-12-20T14:02:49;100689.06;;;11.24;100.00
4528;BME280;62320;51.520;6.818;2022-12-20T14:12:51;100680.44;;;11.23;100.00
4528;BME280;62320;51.520;6.818;2022-12-20T14:23:08;100676.97;;;11.20;100.00
4528;BME280;62320;51.520;6.818;2022-12-20T14:43:33;100666.66;;;11.15;100.00
4528;BME280;62320;51.520;6.818;2022-12-20T14:53:37;100658.06;;;11.09;100.00
4528;BME280;62320;51.520;6.818;2022-12-20T15:03:54;100640.00;;;10.98;100.00
4528;BME280;62320;51.520;6.818;2022-12-20T15:13:57;100641.72;;;10.96;100.00
4528;BME280;62320;51.520;6.818;2022-12-20T15:24:00;100628.81;;;10.95;100.00
4528;BME280;62320;51.520;6.818;2022-12-20T15:34:11;100630.53;;;10.91;100.00
4528;BME280;62320;51.520;6.818;2022-12-20T15:44:20;100630.53;;;10.90;100.00
4528;BME280;62320;51.520;6.818;2022-12-20T15:54:34;100615.91;;;10.87;100.00
4528;BME280;62320;51.520;6.818;2022-12-20T16:04:37;100615.91;;;10.86;100.00
4528;BME280;62320;51.520;6.818;2022-12-20T16:14:38;100608.13;;;10.84;100.00
4528;BME280;62320;51.520;6.818;2022-12-20T16:24:39;100613.31;;;10.86;100.00
4528;BME280;62320;51.520;6.818;2022-12-20T16:34:41;100614.19;;;10.77;100.00
4528;BME280;62320;51.520;6.818;2022-12-20T16:44:43;100608.16;;;10.80;100.00
4528;BME280;62320;51.520;6.818;2022-12-20T16:54:46;100616.78;;;10.75;100.00
4528;BME280;62320;51.520;6.818;2022-12-20T17:04:47;100609.91;;;10.70;100.00
4528;BME280;62320;51.520;6.818;2022-12-20T17:14:49;100613.34;;;10.70;100.00
4528;BME280;62320;51.520;6.818;2022-12-20T17:24:50;100615.94;;;10.66;100.00
4528;BME280;62320;51.520;6.818;2022-12-20T17:34:52;100604.75;;;10.65;100.00
4528;BME280;62320;51.520;6.818;2022-12-20T17:44:54;100593.56;;;10.65;100.00
4528;BME280;62320;51.520;6.818;2022-12-20T17:54:56;100595.28;;;10.63;100.00
4528;BME280;62320;51.520;6.818;2022-12-20T18:04:57;100599.59;;;10.56;100.00
4528;BME280;62320;51.520;6.818;2022-12-20T18:14:59;100615.13;;;10.50;100.00
4528;BME280;62320;51.520;6.818;2022-12-20T18:25:01;100602.19;;;10.56;100.00
4528;BME280;62320;51.520;6.818;2022-12-20T18:35:09;100604.75;;;10.59;100.00
4528;BME280;62320;51.520;6.818;2022-12-20T18:45:11;100597.03;;;10.58;100.00
4528;BME280;62320;51.520;6.818;2022-12-20T18:55:12;100593.56;;;10.54;100.00
4528;BME280;62320;51.520;6.818;2022-12-20T19:05:14;100598.75;;;10.56;100.00
4528;BME280;62320;51.520;6.818;2022-12-20T19:15:16;100600.47;;;10.55;100.00
4528;BME280;62320;51.520;6.818;2022-12-20T19:25:17;100594.44;;;10.55;100.00
4528;BME280;62320;51.520;6.818;2022-12-20T19:35:19;100597.88;;;10.52;100.00
4528;BME280;62320;51.520;6.818;2022-12-20T19:45:40;100591.84;;;10.55;100.00
4528;BME280;62320;51.520;6.818;2022-12-20T19:55:50;100597.03;;;10.46;100.00
4528;BME280;62320;51.520;6.818;2022-12-20T20:05:54;100589.25;;;10.52;100.00
4528;BME280;62320;51.520;6.818;2022-12-20T20:15:57;100597.03;;;10.47;100.00
4528;BME280;62320;51.520;6.818;2022-12-20T20:25:59;100603.94;;;10.47;100.00
4528;BME280;62320;51.520;6.818;2022-12-20T20:36:02;100597.91;;;10.46;100.00
4528;BME280;62320;51.520;6.818;2022-12-20T20:46:05;100587.59;;;10.42;100.00
4528;BME280;62320;51.520;6.818;2022-12-20T20:56:08;100577.22;;;10.48;100.00
4528;BME280;62320;51.520;6.818;2022-12-20T21:06:10;100571.22;;;10.44;100.00
4528;BME280;62320;51.520;6.818;2022-12-20T21:16:31;100570.34;;;10.39;100.00
4528;BME280;62320;51.520;6.818;2022-12-20T21:26:33;100565.16;;;10.45;100.00
4528;BME280;62320;51.520;6.818;2022-12-20T21:36:34;100572.94;;;10.36;100.00
4528;BME280;62320;51.520;6.818;2022-12-20T21:46:36;100585.00;;;10.37;100.00
4528;BME280;62320;51.520;6.818;2022-12-20T21:56:37;100574.66;;;10.39;100.00
4528;BME280;62320;51.520;6.818;2022-12-20T22:06:40;100572.09;;;10.40;100.00
4528;BME280;62320;51.520;6.818;2022-12-20T22:16:42;100578.13;;;10.33;100.00
4528;BME280;62320;51.520;6.818;2022-12-20T22:26:44;100573.81;;;10.29;100.00
4528;BME280;62320;51.520;6.818;2022-12-20T22:36:45;100573.00;;;10.24;100.00
4528;BME280;62320;51.520;6.818;2022-12-20T22:46:47;100572.09;;;10.27;100.00
4528;BME280;62320;51.520;6.818;2022-12-20T22:56:48;100581.56;;;10.37;100.00
4528;BME280;62320;51.520;6.818;2022-12-20T23:06:49;100595.34;;;10.30;100.00
4528;BME280;62320;51.520;6.818;2022-12-20T23:16:51;100592.78;;;10.28;100.00
4528;BME280;62320;51.520;6.818;2022-12-20T23:26:52;100599.66;;;10.29;100.00
4528;BME280;62320;51.520;6.818;2022-12-20T23:36:54;100603.13;;;10.24;100.00
4528;BME280;62320;51.520;6.818;2022-12-20T23:46:55;100600.53;;;10.31;100.00
4528;BME280;62320;51.520;6.818;2022-12-20T23:56:57;100611.75;;;10.29;100.00
